createdAt,value
2017-04-24T00:00:38.528Z,82.30
2017-04-24T00:01:37.816Z,82.30
2017-04-24T00:02:37.237Z,82.50
2017-04-24T00:03:36.516Z,82.60
2017-04-24T00:04:36.276Z,82.70
2017-04-24T00:05:35.539Z,82.60
2017-04-24T00:06:35.701Z,82.60
2017-04-24T00:07:35.017Z,83.30
2017-04-24T00:08:34.429Z,82.40
2017-04-24T00:09:33.661Z,82.30
2017-04-24T00:10:32.919Z,82.20
2017-04-24T00:11:33.310Z,82.10
2017-04-24T00:12:32.533Z,82.00
2017-04-24T00:13:32.523Z,81.90
2017-04-24T00:14:32.143Z,81.90
2017-04-24T00:15:31.568Z,81.90
2017-04-24T00:16:30.820Z,81.80
2017-04-24T00:17:30.778Z,81.80
2017-04-24T00:18:30.037Z,81.90
2017-04-24T00:19:29.672Z,82.20
2017-04-24T00:20:28.964Z,82.30
2017-04-24T00:21:28.185Z,82.50
2017-04-24T00:22:28.167Z,82.80
2017-04-24T00:23:27.393Z,83.10
2017-04-24T00:24:27.358Z,83.10
2017-04-24T00:25:26.896Z,83.00
2017-04-24T00:26:26.209Z,83.10
2017-04-24T00:27:25.425Z,83.20
2017-04-24T00:28:24.662Z,83.40
2017-04-24T00:29:24.609Z,83.70
2017-04-24T00:30:23.917Z,83.80
2017-04-24T00:31:23.216Z,84.00
2017-04-24T00:32:22.613Z,84.20
2017-04-24T00:33:22.261Z,84.50
2017-04-24T00:34:21.500Z,85.00
2017-04-24T00:35:21.147Z,85.00
2017-04-24T00:36:20.644Z,85.00
2017-04-24T00:37:19.912Z,85.10
2017-04-24T00:38:19.933Z,85.10
2017-04-24T00:39:19.469Z,85.30
2017-04-24T00:40:18.720Z,85.20
2017-04-24T00:41:18.239Z,85.30
2017-04-24T00:42:17.466Z,85.30
2017-04-24T00:43:16.683Z,85.10
2017-04-24T00:44:16.814Z,85.10
2017-04-24T00:45:16.029Z,85.20
2017-04-24T00:46:15.317Z,85.70
2017-04-24T00:47:14.629Z,85.70
2017-04-24T00:48:13.849Z,85.80
2017-04-24T00:49:13.825Z,85.80
2017-04-24T00:50:13.068Z,85.90
2017-04-24T00:51:12.286Z,86.20
2017-04-24T00:52:11.588Z,86.10
2017-04-24T00:53:10.873Z,86.20
2017-04-24T00:54:10.399Z,86.30
2017-04-24T00:55:09.971Z,86.40
2017-04-24T00:56:09.280Z,86.50
2017-04-24T00:57:09.150Z,86.60
2017-04-24T00:58:08.356Z,86.50
2017-04-24T00:59:07.567Z,86.60
2017-04-24T01:00:06.833Z,86.80
2017-04-24T01:01:06.260Z,86.80
2017-04-24T01:02:06.320Z,86.90
2017-04-24T01:03:05.602Z,86.90
2017-04-24T01:04:04.922Z,87.10
2017-04-24T01:05:04.191Z,87.10
2017-04-24T01:06:03.501Z,87.10
2017-04-24T01:07:02.878Z,87.00
2017-04-24T01:08:02.181Z,86.80
2017-04-24T01:09:01.400Z,87.50
2017-04-24T01:10:00.615Z,86.80
2017-04-24T01:11:00.165Z,86.80
2017-04-24T01:11:59.470Z,86.70
2017-04-24T01:12:58.717Z,86.70
2017-04-24T01:13:57.999Z,86.70
2017-04-24T01:14:57.761Z,86.90
2017-04-24T01:15:57.078Z,86.90
2017-04-24T01:16:56.308Z,87.00
2017-04-24T01:17:55.731Z,87.00
2017-04-24T01:18:55.768Z,87.20
2017-04-24T01:19:55.021Z,87.30
2017-04-24T01:20:54.452Z,87.20
2017-04-24T01:21:53.708Z,87.40
2017-04-24T01:22:52.981Z,87.30
2017-04-24T01:23:52.506Z,87.30
2017-04-24T01:24:52.487Z,87.30
2017-04-24T01:25:52.006Z,87.30
2017-04-24T01:26:51.979Z,87.40
2017-04-24T01:27:51.522Z,87.40
2017-04-24T01:28:50.752Z,87.40
2017-04-24T01:29:50.088Z,87.30
2017-04-24T01:30:50.093Z,87.20
2017-04-24T01:31:50.231Z,87.40
2017-04-24T01:32:49.447Z,87.40
2017-04-24T01:33:48.691Z,87.40
2017-04-24T01:34:48.713Z,87.30
2017-04-24T01:35:48.368Z,87.90
2017-04-24T01:36:47.615Z,87.40
2017-04-24T01:37:47.162Z,87.40
2017-04-24T01:38:46.426Z,87.40
2017-04-24T01:39:45.672Z,87.40
2017-04-24T01:40:45.619Z,87.40
2017-04-24T01:41:44.972Z,87.50
2017-04-24T01:42:44.991Z,87.50
2017-04-24T01:43:44.297Z,87.50
2017-04-24T01:44:43.708Z,87.50
2017-04-24T01:45:43.085Z,87.60
2017-04-24T01:46:42.326Z,87.50
2017-04-24T01:47:42.291Z,87.80
2017-04-24T01:48:41.572Z,87.80
2017-04-24T01:49:40.875Z,87.90
2017-04-24T01:50:40.097Z,88.00
2017-04-24T01:51:39.318Z,88.20
2017-04-24T01:52:38.536Z,89.00
2017-04-24T01:53:38.055Z,88.50
2017-04-24T01:54:37.284Z,88.70
2017-04-24T01:55:37.269Z,88.70
2017-04-24T01:56:36.547Z,88.90
2017-04-24T01:57:35.794Z,89.00
2017-04-24T01:58:35.084Z,88.90
2017-04-24T01:59:34.303Z,89.00
2017-04-24T02:00:33.532Z,89.10
2017-04-24T02:01:33.572Z,89.30
2017-04-24T02:02:34.008Z,89.40
2017-04-24T02:03:33.416Z,89.40
2017-04-24T02:04:33.601Z,89.40
2017-04-24T02:05:33.020Z,89.40
2017-04-24T02:06:32.267Z,89.40
2017-04-24T02:07:32.135Z,89.50
2017-04-24T02:08:31.490Z,89.60
2017-04-24T02:09:30.746Z,89.60
2017-04-24T02:10:29.960Z,89.70
2017-04-24T02:11:29.369Z,89.70
2017-04-24T02:12:28.599Z,89.70
2017-04-24T02:13:28.600Z,89.70
2017-04-24T02:14:28.563Z,89.70
2017-04-24T02:15:28.076Z,89.70
2017-04-24T02:16:27.893Z,89.80
2017-04-24T02:17:27.968Z,90.00
2017-04-24T02:18:27.284Z,89.80
2017-04-24T02:19:27.157Z,89.80
2017-04-24T02:20:26.864Z,89.90
2017-04-24T02:21:26.126Z,90.00
2017-04-24T02:22:25.451Z,90.00
2017-04-24T02:23:24.699Z,90.00
2017-04-24T02:24:24.977Z,90.00
2017-04-24T02:25:24.927Z,90.10
2017-04-24T02:26:24.148Z,90.20
2017-04-24T02:27:24.235Z,90.20
2017-04-24T02:28:23.484Z,90.20
2017-04-24T02:29:22.693Z,90.20
2017-04-24T02:30:21.944Z,90.30
2017-04-24T02:31:21.221Z,90.30
2017-04-24T02:32:20.541Z,90.30
2017-04-24T02:33:20.787Z,90.60
2017-04-24T02:34:20.112Z,90.30
2017-04-24T02:35:19.380Z,90.30
2017-04-24T02:36:18.670Z,90.30
2017-04-24T02:37:17.932Z,90.40
2017-04-24T02:38:18.774Z,90.40
2017-04-24T02:39:18.061Z,90.40
2017-04-24T02:40:17.291Z,90.40
2017-04-24T02:41:16.516Z,90.40
2017-04-24T02:42:15.742Z,90.30
2017-04-24T02:43:15.013Z,90.30
2017-04-24T02:44:15.393Z,90.30
2017-04-24T02:45:14.717Z,90.30
2017-04-24T02:46:15.126Z,90.30
2017-04-24T02:47:15.943Z,90.30
2017-04-24T02:48:15.199Z,90.30
2017-04-24T02:49:14.488Z,90.30
2017-04-24T02:50:13.752Z,90.60
2017-04-24T02:51:12.982Z,90.30
2017-04-24T02:52:12.187Z,90.30
2017-04-24T02:54:10.953Z,90.30
2017-04-24T02:55:10.164Z,90.30
2017-04-24T02:56:10.228Z,90.30
2017-04-24T02:57:10.165Z,90.30
2017-04-24T02:58:11.314Z,90.30
2017-04-24T02:59:10.768Z,90.30
2017-04-24T03:00:10.223Z,90.30
2017-04-24T03:01:09.476Z,90.30
2017-04-24T03:02:08.699Z,90.30
2017-04-24T03:03:09.284Z,90.30
2017-04-24T03:04:08.884Z,90.30
2017-04-24T03:05:08.596Z,90.30
2017-04-24T03:06:08.300Z,90.30
2017-04-24T03:07:07.715Z,90.40
2017-04-24T03:08:08.039Z,90.40
2017-04-24T03:09:08.615Z,90.40
2017-04-24T03:10:08.155Z,90.50
2017-04-24T03:11:07.404Z,90.50
2017-04-24T03:12:06.661Z,90.60
2017-04-24T03:13:06.700Z,90.60
2017-04-24T03:14:06.373Z,90.60
2017-04-24T03:15:05.665Z,90.60
2017-04-24T03:16:04.882Z,90.60
2017-04-24T03:17:04.115Z,90.60
2017-04-24T03:18:03.744Z,90.70
2017-04-24T03:19:02.974Z,90.70
2017-04-24T03:20:02.250Z,90.70
2017-04-24T03:21:01.508Z,90.80
2017-04-24T03:22:00.705Z,90.80
2017-04-24T03:22:59.920Z,90.70
2017-04-24T03:23:59.356Z,90.70
2017-04-24T03:24:59.095Z,90.70
2017-04-24T03:25:58.332Z,90.70
2017-04-24T03:26:58.814Z,90.70
2017-04-24T03:27:59.343Z,90.70
2017-04-24T03:28:58.794Z,90.70
2017-04-24T03:29:58.378Z,90.70
2017-04-24T03:30:58.342Z,90.80
2017-04-24T03:31:57.936Z,90.80
2017-04-24T03:32:58.395Z,91.00
2017-04-24T03:33:57.623Z,90.70
2017-04-24T03:34:56.891Z,90.70
2017-04-24T03:35:56.524Z,90.70
2017-04-24T03:36:55.745Z,90.70
2017-04-24T03:37:55.713Z,90.70
2017-04-24T03:38:54.938Z,90.70
2017-04-24T03:39:55.153Z,91.00
2017-04-24T03:40:56.389Z,90.70
2017-04-24T03:41:56.858Z,90.80
2017-04-24T03:42:56.086Z,90.70
2017-04-24T03:43:55.325Z,90.70
2017-04-24T03:44:54.551Z,90.80
2017-04-24T03:45:53.854Z,90.80
2017-04-24T03:46:53.196Z,90.80
2017-04-24T03:47:52.431Z,90.80
2017-04-24T03:48:51.756Z,90.80
2017-04-24T03:49:51.173Z,90.80
2017-04-24T03:50:50.493Z,90.80
2017-04-24T03:51:49.748Z,90.80
2017-04-24T03:52:49.004Z,90.80
2017-04-24T03:53:49.082Z,90.80
2017-04-24T03:54:49.081Z,91.00
2017-04-24T03:55:48.835Z,90.80
2017-04-24T03:56:48.489Z,90.80
2017-04-24T03:57:48.519Z,90.80
2017-04-24T03:58:48.260Z,90.80
2017-04-24T03:59:47.511Z,90.80
2017-04-24T04:00:47.492Z,91.00
2017-04-24T04:01:47.174Z,90.80
2017-04-24T04:02:46.397Z,90.80
2017-04-24T04:03:45.644Z,90.90
2017-04-24T04:04:44.908Z,90.90
2017-04-24T04:05:44.789Z,91.20
2017-04-24T04:06:45.013Z,90.90
2017-04-24T04:07:44.960Z,90.90
2017-04-24T04:08:44.209Z,90.80
2017-04-24T04:09:44.197Z,90.80
2017-04-24T04:10:43.460Z,90.90
2017-04-24T04:11:42.796Z,90.90
2017-04-24T04:12:43.562Z,90.90
2017-04-24T04:13:42.825Z,90.90
2017-04-24T04:14:42.053Z,90.90
2017-04-24T04:15:41.272Z,90.90
2017-04-24T04:16:40.541Z,90.90
2017-04-24T04:17:39.790Z,91.00
2017-04-24T04:18:39.364Z,90.90
2017-04-24T04:19:38.907Z,90.90
2017-04-24T04:20:38.151Z,90.80
2017-04-24T04:21:38.277Z,90.90
2017-04-24T04:22:38.435Z,90.60
2017-04-24T04:23:37.908Z,90.70
2017-04-24T04:24:37.131Z,90.70
2017-04-24T04:25:36.739Z,90.60
2017-04-24T04:26:35.980Z,90.50
2017-04-24T04:27:35.187Z,90.50
2017-04-24T04:28:34.810Z,90.40
2017-04-24T04:30:33.694Z,90.50
2017-04-24T04:31:33.323Z,90.10
2017-04-24T04:32:33.366Z,90.10
2017-04-24T04:33:32.617Z,90.00
2017-04-24T04:34:32.608Z,90.00
2017-04-24T04:35:31.881Z,89.70
2017-04-24T04:36:31.811Z,89.70
2017-04-24T04:37:31.794Z,89.40
2017-04-24T04:38:31.019Z,89.10
2017-04-24T04:39:30.983Z,88.70
2017-04-24T04:40:30.280Z,88.50
2017-04-24T04:41:29.492Z,88.50
2017-04-24T04:42:29.464Z,88.40
2017-04-24T04:43:28.854Z,88.10
2017-04-24T04:44:28.449Z,88.10
2017-04-24T04:45:27.672Z,88.00
2017-04-24T04:46:27.868Z,87.90
2017-04-24T04:47:27.856Z,87.60
2017-04-24T04:48:27.072Z,87.40
2017-04-24T04:49:26.997Z,87.50
2017-04-24T04:50:26.955Z,87.10
2017-04-24T04:51:26.224Z,86.90
2017-04-24T04:52:26.266Z,86.60
2017-04-24T04:53:25.624Z,86.00
2017-04-24T04:54:24.864Z,86.00
2017-04-24T04:55:24.103Z,86.10
2017-04-24T04:56:24.201Z,86.10
2017-04-24T04:57:23.781Z,85.90
2017-04-24T04:58:23.810Z,85.70
2017-04-24T04:59:23.151Z,85.90
2017-04-24T05:00:22.371Z,84.80
2017-04-24T05:01:22.347Z,84.40
2017-04-24T05:02:21.571Z,84.20
2017-04-24T05:03:22.104Z,84.00
2017-04-24T05:04:21.398Z,83.80
2017-04-24T05:05:21.624Z,83.40
2017-04-24T05:06:20.859Z,83.30
2017-04-24T05:07:21.012Z,82.70
2017-04-24T05:08:20.272Z,82.40
2017-04-24T05:09:20.224Z,83.20
2017-04-24T05:10:19.479Z,82.20
2017-04-24T05:11:19.483Z,81.90
2017-04-24T05:12:19.464Z,81.40
2017-04-24T05:13:18.708Z,81.30
2017-04-24T05:14:17.937Z,81.20
2017-04-24T05:15:17.195Z,81.20
2017-04-24T05:16:16.476Z,81.00
2017-04-24T05:17:16.309Z,80.60
2017-04-24T05:18:15.535Z,80.30
2017-04-24T05:19:15.542Z,80.40
2017-04-24T05:20:15.540Z,80.20
2017-04-24T05:21:15.421Z,80.10
2017-04-24T05:23:14.225Z,69.50
2017-04-24T05:24:13.656Z,59.30
2017-04-24T05:25:13.651Z,53.00
2017-04-24T05:26:14.003Z,44.90
2017-04-24T05:27:13.229Z,41.20
2017-04-24T05:28:12.488Z,38.20
2017-04-24T05:29:11.711Z,35.60
2017-04-24T05:30:10.932Z,33.30
2017-04-24T05:31:10.519Z,31.20
2017-04-24T05:32:10.509Z,30.20
2017-04-24T05:33:09.743Z,29.80
2017-04-24T05:34:09.757Z,29.00
2017-04-24T05:35:09.477Z,27.80
2017-04-24T05:36:08.716Z,26.20
2017-04-24T05:37:08.760Z,26.20
2017-04-24T05:38:07.957Z,25.90
2017-04-24T05:39:07.207Z,25.30
2017-04-24T05:40:07.187Z,25.60
2017-04-24T05:41:06.426Z,24.10
2017-04-24T05:42:05.659Z,23.50
2017-04-24T05:43:05.594Z,23.70
2017-04-24T05:44:05.384Z,23.40
2017-04-24T05:45:05.381Z,22.10
2017-04-24T05:46:04.624Z,22.20
2017-04-24T05:47:03.831Z,22.30
2017-04-24T05:48:03.272Z,22.80
2017-04-24T05:49:03.233Z,21.90
2017-04-24T05:50:02.781Z,21.00
2017-04-24T05:51:02.092Z,21.50
2017-04-24T05:52:01.433Z,21.90
2017-04-24T05:53:00.649Z,21.60
2017-04-24T05:54:00.594Z,21.40
2017-04-24T05:54:59.858Z,21.70
2017-04-24T05:55:59.075Z,21.10
2017-04-24T05:56:58.293Z,20.30
2017-04-24T05:57:57.552Z,20.30
2017-04-24T05:58:56.772Z,20.00
2017-04-24T05:59:55.976Z,19.70
2017-04-24T06:00:55.277Z,20.00
2017-04-24T06:01:56.748Z,20.10
2017-04-24T06:02:55.961Z,19.80
2017-04-24T06:03:55.394Z,19.90
2017-04-24T06:04:55.355Z,19.70
2017-04-24T06:05:54.556Z,18.90
2017-04-24T06:06:53.775Z,19.70
2017-04-24T06:07:53.558Z,20.40
2017-04-24T06:08:53.213Z,19.10
2017-04-24T06:09:53.127Z,18.90
2017-04-24T06:10:52.382Z,19.70
2017-04-24T06:11:53.055Z,20.40
2017-04-24T06:12:52.287Z,21.20
2017-04-24T06:13:52.321Z,21.50
2017-04-24T06:14:51.540Z,21.90
2017-04-24T06:15:50.956Z,21.60
2017-04-24T06:16:50.522Z,21.50
2017-04-24T06:17:49.798Z,21.90
2017-04-24T06:18:49.032Z,22.70
2017-04-24T06:19:48.248Z,23.20
2017-04-24T06:20:48.231Z,23.80
2017-04-24T06:21:47.475Z,24.60
2017-04-24T06:22:47.651Z,24.70
2017-04-24T06:23:47.621Z,25.40
2017-04-24T06:24:47.762Z,26.20
2017-04-24T06:25:47.754Z,26.90
2017-04-24T06:26:47.003Z,28.60
2017-04-24T06:27:46.393Z,28.80
2017-04-24T06:28:45.688Z,30.20
2017-04-24T06:29:45.008Z,30.80
2017-04-24T06:30:44.236Z,30.10
2017-04-24T06:31:44.230Z,30.00
2017-04-24T06:32:43.527Z,31.00
2017-04-24T06:33:43.575Z,32.60
2017-04-24T06:34:42.809Z,32.30
2017-04-24T06:35:42.391Z,33.40
2017-04-24T06:36:41.601Z,33.50
2017-04-24T06:37:40.834Z,34.80
2017-04-24T06:38:40.051Z,36.00
2017-04-24T06:39:39.301Z,34.50
2017-04-24T06:40:38.947Z,36.10
2017-04-24T06:41:38.172Z,34.90
2017-04-24T06:42:38.749Z,35.60
2017-04-24T06:43:38.122Z,36.80
2017-04-24T06:44:37.345Z,37.20
2017-04-24T06:45:36.627Z,39.00
2017-04-24T06:46:36.655Z,40.30
2017-04-24T06:47:35.887Z,40.00
2017-04-24T06:48:35.088Z,41.30
2017-04-24T06:49:34.300Z,42.40
2017-04-24T06:50:34.536Z,42.50
2017-04-24T06:51:33.805Z,43.70
2017-04-24T06:52:33.013Z,41.50
2017-04-24T06:53:32.224Z,40.70
2017-04-24T06:54:32.709Z,40.90
2017-04-24T06:55:31.932Z,39.70
2017-04-24T06:56:31.903Z,39.50
2017-04-24T06:57:31.389Z,40.50
2017-04-24T06:58:30.589Z,41.20
2017-04-24T06:59:29.797Z,41.00
2017-04-24T07:00:29.017Z,42.10
2017-04-24T07:01:28.841Z,42.90
2017-04-24T07:02:28.169Z,43.30
2017-04-24T07:03:27.849Z,42.60
2017-04-24T07:04:27.209Z,42.10
2017-04-24T07:05:26.443Z,40.10
2017-04-24T07:06:25.654Z,39.90
2017-04-24T07:07:25.339Z,38.10
2017-04-24T07:08:24.969Z,38.50
2017-04-24T07:09:24.217Z,37.70
2017-04-24T07:10:23.459Z,37.30
2017-04-24T07:11:23.298Z,36.00
2017-04-24T07:12:22.927Z,35.40
2017-04-24T07:13:22.945Z,36.60
2017-04-24T07:14:22.933Z,37.10
2017-04-24T07:15:22.200Z,35.40
2017-04-24T07:16:22.603Z,35.60
2017-04-24T07:17:21.865Z,36.20
2017-04-24T07:18:21.056Z,35.70
2017-04-24T07:19:21.065Z,37.80
2017-04-24T07:20:20.374Z,39.60
2017-04-24T07:21:19.744Z,40.60
2017-04-24T07:22:18.997Z,40.50
2017-04-24T07:23:19.000Z,40.80
2017-04-24T07:24:18.203Z,41.00
2017-04-24T07:25:17.455Z,41.00
2017-04-24T07:26:17.052Z,40.80
2017-04-24T07:27:16.601Z,42.20
2017-04-24T07:28:15.852Z,41.40
2017-04-24T07:29:15.153Z,41.00
2017-04-24T07:30:14.958Z,40.20
2017-04-24T07:31:14.284Z,40.00
2017-04-24T07:32:14.140Z,39.50
2017-04-24T07:33:13.404Z,38.10
2017-04-24T07:34:12.683Z,38.60
2017-04-24T07:35:11.945Z,38.40
2017-04-24T07:36:11.908Z,36.70
2017-04-24T07:37:11.209Z,37.10
2017-04-24T07:38:10.474Z,34.50
2017-04-24T07:39:09.752Z,34.50
2017-04-24T07:40:09.012Z,35.30
2017-04-24T07:41:09.432Z,35.50
2017-04-24T07:42:09.392Z,35.00
2017-04-24T07:43:08.615Z,35.60
2017-04-24T07:44:07.833Z,35.40
2017-04-24T07:45:07.392Z,33.30
2017-04-24T07:46:06.643Z,34.30
2017-04-24T07:47:05.868Z,34.70
2017-04-24T07:48:05.297Z,35.40
2017-04-24T07:49:04.643Z,34.60
2017-04-24T07:50:04.662Z,33.40
2017-04-24T07:51:04.214Z,33.30
2017-04-24T07:52:04.944Z,33.30
2017-04-24T07:53:04.984Z,33.90
2017-04-24T07:54:04.752Z,35.20
2017-04-24T07:55:04.296Z,35.10
2017-04-24T07:56:04.310Z,36.70
2017-04-24T07:57:03.514Z,35.20
2017-04-24T07:58:03.946Z,34.10
2017-04-24T07:59:03.460Z,33.90
2017-04-24T08:00:02.873Z,32.00
2017-04-24T08:01:02.389Z,32.10
2017-04-24T08:02:01.836Z,32.30
2017-04-24T08:03:01.235Z,32.90
2017-04-24T08:04:00.458Z,30.80
2017-04-24T08:04:59.721Z,32.30
2017-04-24T08:05:59.183Z,30.50
2017-04-24T08:06:58.792Z,29.80
2017-04-24T08:07:58.162Z,29.70
2017-04-24T08:08:58.169Z,29.40
2017-04-24T08:09:58.411Z,30.00
2017-04-24T08:10:58.175Z,30.00
2017-04-24T08:11:58.168Z,29.00
2017-04-24T08:12:58.205Z,29.30
2017-04-24T08:13:58.200Z,29.30
2017-04-24T08:14:58.444Z,29.90
2017-04-24T08:15:57.901Z,28.50
2017-04-24T08:16:57.167Z,29.20
2017-04-24T08:17:56.713Z,28.30
2017-04-24T08:18:56.488Z,28.10
2017-04-24T08:19:56.106Z,28.60
2017-04-24T08:20:56.732Z,28.00
2017-04-24T08:21:56.000Z,29.30
2017-04-24T08:22:55.313Z,29.10
2017-04-24T08:23:55.571Z,29.00
2017-04-24T08:24:54.813Z,29.10
2017-04-24T08:25:55.009Z,29.30
2017-04-24T08:26:54.219Z,28.60
2017-04-24T08:27:54.170Z,29.20
2017-04-24T08:28:53.437Z,28.30
2017-04-24T08:29:52.703Z,29.40
2017-04-24T08:30:52.660Z,28.00
2017-04-24T08:31:52.176Z,29.20
2017-04-24T08:32:52.717Z,28.10
2017-04-24T08:33:52.245Z,28.00
2017-04-24T08:34:52.075Z,28.40
2017-04-24T08:35:51.842Z,28.70
2017-04-24T08:36:51.292Z,28.70
2017-04-24T08:37:51.045Z,28.90
2017-04-24T08:38:50.265Z,29.70
2017-04-24T08:39:50.078Z,30.10
2017-04-24T08:40:50.296Z,30.00
2017-04-24T08:41:50.106Z,29.30
2017-04-24T08:42:50.105Z,29.60
2017-04-24T08:43:49.378Z,28.80
2017-04-24T08:44:48.610Z,28.80
2017-04-24T08:45:48.556Z,28.80
2017-04-24T08:46:48.459Z,29.30
2017-04-24T08:47:47.700Z,29.70
2017-04-24T08:48:47.527Z,29.00
2017-04-24T08:49:46.806Z,29.00
2017-04-24T08:50:47.532Z,28.50
2017-04-24T08:51:46.785Z,28.50
2017-04-24T08:52:46.628Z,28.70
2017-04-24T08:53:45.956Z,28.80
2017-04-24T08:54:45.224Z,28.10
2017-04-24T08:55:44.835Z,27.50
2017-04-24T08:56:44.555Z,27.20
2017-04-24T08:57:44.225Z,26.40
2017-04-24T08:58:43.431Z,26.80
2017-04-24T08:59:42.652Z,26.50
2017-04-24T09:00:42.451Z,26.60
2017-04-24T09:01:41.899Z,27.70
2017-04-24T09:02:41.149Z,26.20
2017-04-24T09:03:40.388Z,26.20
2017-04-24T09:04:40.088Z,26.30
2017-04-24T09:05:39.637Z,25.40
2017-04-24T09:06:39.619Z,25.50
2017-04-24T09:07:39.309Z,25.90
2017-04-24T09:08:39.102Z,24.50
2017-04-24T09:09:38.382Z,25.00
2017-04-24T09:10:38.266Z,23.10
2017-04-24T09:11:38.743Z,23.80
2017-04-24T09:12:37.997Z,24.80
2017-04-24T09:13:37.869Z,25.10
2017-04-24T09:14:37.627Z,24.30
2017-04-24T09:15:36.861Z,23.70
2017-04-24T09:16:43.478Z,23.80
2017-04-24T09:17:42.763Z,23.50
2017-04-24T09:18:42.375Z,23.50
2017-04-24T09:19:41.802Z,23.30
2017-04-24T09:20:42.146Z,23.00
2017-04-24T09:21:41.965Z,23.50
2017-04-24T09:22:41.276Z,22.80
2017-04-24T09:23:41.154Z,22.90
2017-04-24T09:24:40.444Z,24.40
2017-04-24T09:25:40.217Z,24.30
2017-04-24T09:26:40.014Z,21.30
2017-04-24T09:27:39.487Z,21.30
2017-04-24T09:28:39.996Z,21.70
2017-04-24T09:29:40.397Z,23.70
2017-04-24T09:30:39.652Z,21.80
2017-04-24T09:31:39.451Z,22.10
2017-04-24T09:32:40.552Z,22.50
2017-04-24T09:33:40.543Z,22.90
2017-04-24T09:34:39.905Z,23.00
2017-04-24T09:35:39.196Z,23.20
2017-04-24T09:36:39.180Z,22.90
2017-04-24T09:37:38.496Z,24.20
2017-04-24T09:38:37.736Z,23.00
2017-04-24T09:39:37.270Z,23.30
2017-04-24T09:40:36.516Z,23.10
2017-04-24T09:41:36.038Z,23.10
2017-04-24T09:42:35.464Z,22.10
2017-04-24T09:43:35.698Z,22.60
2017-04-24T09:44:35.219Z,23.20
2017-04-24T09:45:34.509Z,22.50
2017-04-24T09:46:33.867Z,21.60
2017-04-24T09:47:33.582Z,22.10
2017-04-24T09:48:33.877Z,23.40
2017-04-24T09:49:33.096Z,23.20
2017-04-24T09:50:32.488Z,23.50
2017-04-24T09:51:32.132Z,22.80
2017-04-24T09:52:31.497Z,22.60
2017-04-24T09:53:31.921Z,24.40
2017-04-24T09:54:32.073Z,23.80
2017-04-24T09:55:31.330Z,23.40
2017-04-24T09:56:31.425Z,23.00
2017-04-24T09:57:31.891Z,22.70
2017-04-24T09:58:31.852Z,22.50
2017-04-24T09:59:31.085Z,22.00
2017-04-24T10:00:30.842Z,23.40
2017-04-24T10:01:31.428Z,23.90
2017-04-24T10:02:31.694Z,23.20
2017-04-24T10:03:31.567Z,23.10
2017-04-24T10:04:31.155Z,22.90
2017-04-24T10:05:30.899Z,23.50
2017-04-24T10:06:30.987Z,23.60
2017-04-24T10:07:30.949Z,22.70
2017-04-24T10:08:30.171Z,22.80
2017-04-24T10:09:30.039Z,22.80
2017-04-24T10:10:29.693Z,22.50
2017-04-24T10:11:28.970Z,22.00
2017-04-24T10:12:28.313Z,22.40
2017-04-24T10:13:27.568Z,22.30
2017-04-24T10:14:27.708Z,20.80
2017-04-24T10:15:27.257Z,22.40
2017-04-24T10:16:26.679Z,21.60
2017-04-24T10:17:26.758Z,22.40
2017-04-24T10:18:26.415Z,21.30
2017-04-24T10:19:25.680Z,21.50
2017-04-24T10:20:24.899Z,21.80
2017-04-24T10:21:24.937Z,23.10
2017-04-24T10:22:24.231Z,22.50
2017-04-24T10:23:23.520Z,21.50
2017-04-24T10:24:22.996Z,22.40
2017-04-24T10:25:23.028Z,21.90
2017-04-24T10:26:22.319Z,21.90
2017-04-24T10:27:23.006Z,21.60
2017-04-24T10:28:22.231Z,21.70
2017-04-24T10:29:21.521Z,22.20
2017-04-24T10:30:20.727Z,22.00
2017-04-24T10:31:20.679Z,21.40
2017-04-24T10:32:20.393Z,22.10
2017-04-24T10:33:19.709Z,22.20
2017-04-24T10:34:18.909Z,22.20
2017-04-24T10:35:18.790Z,22.60
2017-04-24T10:36:18.767Z,22.80
2017-04-24T10:37:18.145Z,22.60
2017-04-24T10:38:17.393Z,22.90
2017-04-24T10:39:16.626Z,22.40
2017-04-24T10:40:16.765Z,22.70
2017-04-24T10:41:16.544Z,23.00
2017-04-24T10:42:15.767Z,22.70
2017-04-24T10:43:15.304Z,23.20
2017-04-24T10:44:14.676Z,23.20
2017-04-24T10:45:13.939Z,22.10
2017-04-24T10:46:13.687Z,23.10
2017-04-24T10:47:12.909Z,23.20
2017-04-24T10:48:12.458Z,23.20
2017-04-24T10:49:11.795Z,22.90
2017-04-24T10:50:11.257Z,23.40
2017-04-24T10:51:11.328Z,23.10
2017-04-24T10:52:11.334Z,22.40
2017-04-24T10:53:10.539Z,22.60
2017-04-24T10:54:09.761Z,23.50
2017-04-24T10:55:09.415Z,22.00
2017-04-24T10:56:09.114Z,23.20
2017-04-24T10:57:09.082Z,23.40
2017-04-24T10:58:08.278Z,22.20
2017-04-24T10:59:07.552Z,22.50
2017-04-24T11:00:06.945Z,22.60
2017-04-24T11:01:06.502Z,22.90
2017-04-24T11:02:05.789Z,22.70
2017-04-24T11:03:05.028Z,23.00
2017-04-24T11:04:04.261Z,22.20
2017-04-24T11:05:03.478Z,22.60
2017-04-24T11:06:03.512Z,22.00
2017-04-24T11:07:02.996Z,22.20
2017-04-24T11:08:02.287Z,23.50
2017-04-24T11:09:01.739Z,22.40
2017-04-24T11:10:01.033Z,22.70
2017-04-24T11:11:00.247Z,23.20
2017-04-24T11:12:00.332Z,23.80
2017-04-24T11:12:59.821Z,23.60
2017-04-24T11:13:59.805Z,23.70
2017-04-24T11:14:59.228Z,23.40
2017-04-24T11:15:58.757Z,22.90
2017-04-24T11:16:58.039Z,24.00
2017-04-24T11:17:58.533Z,23.30
2017-04-24T11:18:58.524Z,23.20
2017-04-24T11:19:57.808Z,23.20
2017-04-24T11:20:58.340Z,23.40
2017-04-24T11:21:58.544Z,23.40
2017-04-24T11:22:58.311Z,23.50
2017-04-24T11:23:58.107Z,23.30
2017-04-24T11:24:57.626Z,22.40
2017-04-24T11:25:56.954Z,22.70
2017-04-24T11:26:56.265Z,22.50
2017-04-24T11:27:56.232Z,22.40
2017-04-24T11:28:55.713Z,22.60
2017-04-24T11:29:55.273Z,22.10
2017-04-24T11:30:55.275Z,22.00
2017-04-24T11:31:55.251Z,22.00
2017-04-24T11:32:54.524Z,22.00
2017-04-24T11:33:53.744Z,22.00
2017-04-24T11:34:53.347Z,23.10
2017-04-24T11:35:53.388Z,23.40
2017-04-24T11:36:52.998Z,23.20
2017-04-24T11:37:52.228Z,22.80
2017-04-24T11:38:51.475Z,21.80
2017-04-24T11:39:50.951Z,21.60
2017-04-24T11:40:50.191Z,21.90
2017-04-24T11:41:49.452Z,21.80
2017-04-24T11:42:49.251Z,20.70
2017-04-24T11:43:49.040Z,21.10
2017-04-24T11:44:48.260Z,21.50
2017-04-24T11:45:47.496Z,21.80
2017-04-24T11:46:46.852Z,21.60
2017-04-24T11:47:46.141Z,21.60
2017-04-24T11:48:45.640Z,21.20
2017-04-24T11:49:45.221Z,22.40
2017-04-24T11:50:44.668Z,21.30
2017-04-24T11:51:45.174Z,21.90
2017-04-24T11:52:45.207Z,21.20
2017-04-24T11:53:44.616Z,21.20
2017-04-24T11:54:43.919Z,20.70
2017-04-24T11:55:43.476Z,21.00
2017-04-24T11:56:42.746Z,22.40
2017-04-24T11:57:42.020Z,21.00
2017-04-24T11:58:41.280Z,21.30
2017-04-24T11:59:40.539Z,21.40
2017-04-24T12:00:40.623Z,21.00
2017-04-24T12:01:40.023Z,21.60
2017-04-24T12:02:39.409Z,21.50
2017-04-24T12:03:38.768Z,21.10
2017-04-24T12:04:38.035Z,21.20
2017-04-24T12:05:37.467Z,21.10
2017-04-24T12:06:36.768Z,21.30
2017-04-24T12:07:36.004Z,21.80
2017-04-24T12:08:35.278Z,20.80
2017-04-24T12:09:35.772Z,23.20
2017-04-24T12:10:35.773Z,22.00
2017-04-24T12:11:35.217Z,21.30
2017-04-24T12:12:35.026Z,20.90
2017-04-24T12:13:34.292Z,21.60
2017-04-24T12:14:33.804Z,20.90
2017-04-24T12:15:33.199Z,21.10
2017-04-24T12:16:32.480Z,21.10
2017-04-24T12:17:31.883Z,21.00
2017-04-24T12:18:31.412Z,20.80
2017-04-24T12:19:30.675Z,20.80
2017-04-24T12:20:30.038Z,20.90
2017-04-24T12:21:30.098Z,21.50
2017-04-24T12:22:29.365Z,20.80
2017-04-24T12:23:28.729Z,20.40
2017-04-24T12:24:28.854Z,20.90
2017-04-24T12:25:28.826Z,20.20
2017-04-24T12:26:28.109Z,21.10
2017-04-24T12:27:27.447Z,20.70
2017-04-24T12:28:26.871Z,21.80
2017-04-24T12:29:26.208Z,19.70
2017-04-24T12:30:26.212Z,20.70
2017-04-24T12:31:28.887Z,20.70
2017-04-24T12:32:32.384Z,20.70
2017-04-24T12:33:32.669Z,20.80
2017-04-24T12:34:31.992Z,20.60
2017-04-24T12:35:33.365Z,20.20
2017-04-24T12:36:32.708Z,20.70
2017-04-24T12:37:32.081Z,19.70
2017-04-24T12:38:31.398Z,19.40
2017-04-24T12:39:31.483Z,19.30
2017-04-24T12:40:30.843Z,19.60
2017-04-24T12:41:30.112Z,19.40
2017-04-24T12:42:30.120Z,18.80
2017-04-24T12:43:30.176Z,19.00
2017-04-24T12:44:29.423Z,18.40
2017-04-24T12:45:28.723Z,18.80
2017-04-24T12:46:27.965Z,19.10
2017-04-24T12:47:27.193Z,18.50
2017-04-24T12:48:26.436Z,17.90
2017-04-24T12:49:25.652Z,19.30
2017-04-24T12:50:25.625Z,18.90